Time;durP1;ratioP1;P1;durP2;ratioP2;P2;SDS_P1;SDS_P2;PMS_P1;PMS_P2;Temp;Humidity;BMP_temperature;BMP_pressure;BME280_temperature;BME280_humidity;BME280_pressure;Samples;Min_cycle;Max_cycle;Signal;HPM_P1;HPM_P2
2022/11/13 00:02:23;;;;;;;138.07;66.55;;;;;;;;;;5076714;28;20028;-76
2022/11/13 00:04:49;;;;;;;77.45;56.30;;;;;;;;;;5080050;28;20071;-73
2022/11/13 00:07:14;;;;;;;55.72;44.15;;;;;;;;;;5081308;28;20081;-72
2022/11/13 00:09:39;;;;;;;232.95;97.32;;;;;;;;;;5081217;28;20125;-74
2022/11/13 00:12:04;;;;;;;622.80;241.23;;;;;;;;;;5080890;28;20070;-73
2022/11/13 00:14:30;;;;;;;334.75;131.88;;;;;;;;;;5081472;28;20101;-73
2022/11/13 00:16:55;;;;;;;181.20;84.90;;;;;;;;;;5070361;28;20447;-71
2022/11/13 00:19:20;;;;;;;123.85;61.70;;;;;;;;;;5079990;28;20059;-70
2022/11/13 00:21:46;;;;;;;143.45;69.43;;;;;;;;;;5078636;28;20031;-71
2022/11/13 00:24:11;;;;;;;107.75;60.67;;;;;;;;;;5075378;28;20161;-75
2022/11/13 00:26:38;;;;;;;85.68;52.88;;;;;;;;;;5067808;28;20032;-73
2022/11/13 00:29:03;;;;;;;65.53;46.83;;;;;;;;;;5075467;28;20073;-73
2022/11/13 00:31:29;;;;;;;59.45;45.67;;;;;;;;;;5070253;28;20467;-71
2022/11/13 00:33:54;;;;;;;62.33;46.45;;;;;;;;;;5080960;28;20020;-70
2022/11/13 00:36:21;;;;;;;58.05;46.70;;;;;;;;;;5081640;28;20427;-71
2022/11/13 00:38:47;;;;;;;55.50;45.42;;;;;;;;;;5071022;28;20443;-73
2022/11/13 00:41:12;;;;;;;132.98;83.38;;;;;;;;;;5079983;28;20035;-76
2022/11/13 00:43:38;;;;;;;91.85;66.35;;;;;;;;;;5078932;28;20028;-72
2022/11/13 00:46:04;;;;;;;60.90;45.67;;;;;;;;;;5079751;28;20016;-77
2022/11/13 00:48:29;;;;;;;44.97;37.92;;;;;;;;;;5078630;28;20422;-72
2022/11/13 00:50:54;;;;;;;42.45;33.90;;;;;;;;;;5080949;28;20081;-71
2022/11/13 00:53:20;;;;;;;37.30;31.83;;;;;;;;;;5080244;28;20032;-72
2022/11/13 00:55:46;;;;;;;41.05;34.10;;;;;;;;;;5077763;28;20069;-71
2022/11/13 00:58:11;;;;;;;51.28;40.22;;;;;;;;;;5073549;28;20028;-76
2022/11/13 01:00:38;;;;;;;47.47;40.05;;;;;;;;;;5079808;28;20080;-73
2022/11/13 01:03:03;;;;;;;44.20;36.13;;;;;;;;;;5077965;28;20740;-72
2022/11/13 01:05:28;;;;;;;71.40;56.83;;;;;;;;;;5083206;28;20689;-74
2022/11/13 01:07:54;;;;;;;63.25;51.15;;;;;;;;;;5085212;28;20030;-71
2022/11/13 01:10:20;;;;;;;57.90;48.33;;;;;;;;;;5083418;28;20028;-72
2022/11/13 01:12:45;;;;;;;60.08;45.75;;;;;;;;;;5083699;28;20440;-71
2022/11/13 01:15:11;;;;;;;64.75;52.80;;;;;;;;;;5082872;28;20024;-75
2022/11/13 01:17:36;;;;;;;61.83;51.95;;;;;;;;;;5084655;28;20063;-72
2022/11/13 01:20:02;;;;;;;55.55;48.20;;;;;;;;;;5077412;28;20599;-72
2022/11/13 01:22:28;;;;;;;58.80;47.75;;;;;;;;;;5079848;28;20412;-73
2022/11/13 01:24:53;;;;;;;57.95;49.13;;;;;;;;;;5082949;28;20028;-73
2022/11/13 01:27:18;;;;;;;59.17;49.53;;;;;;;;;;5075412;28;20028;-73
2022/11/13 01:29:44;;;;;;;66.30;50.88;;;;;;;;;;5080787;28;20028;-72
2022/11/13 01:32:09;;;;;;;64.78;50.78;;;;;;;;;;5085261;28;20436;-71
2022/11/13 01:34:34;;;;;;;48.83;39.72;;;;;;;;;;5084034;28;20336;-72
2022/11/13 01:37:00;;;;;;;150.65;114.30;;;;;;;;;;5081910;28;20020;-72
2022/11/13 01:39:25;;;;;;;99.35;74.50;;;;;;;;;;5083751;28;20032;-71
2022/11/13 01:41:50;;;;;;;87.18;67.97;;;;;;;;;;5076496;28;20038;-75
2022/11/13 01:44:17;;;;;;;76.43;60.03;;;;;;;;;;5080236;28;20090;-79
2022/11/13 01:46:52;;;;;;;85.47;67.40;;;;;;;;;;5081819;28;20043;-72
2022/11/13 01:49:37;;;;;;;71.65;55.25;;;;;;;;;;5083489;28;20031;-72
2022/11/13 01:52:04;;;;;;;64.68;53.40;;;;;;;;;;5084893;28;20043;-75
2022/11/13 01:54:32;;;;;;;60.20;47.22;;;;;;;;;;5080149;28;20371;-73
2022/11/13 01:56:57;;;;;;;60.85;50.15;;;;;;;;;;5069595;28;20104;-73
2022/11/13 01:59:25;;;;;;;83.43;63.67;;;;;;;;;;5079050;28;20444;-72
2022/11/13 02:01:51;;;;;;;73.32;57.80;;;;;;;;;;5075417;28;20117;-75
2022/11/13 02:04:16;;;;;;;71.72;54.90;;;;;;;;;;5079034;28;20467;-77
2022/11/13 02:06:47;;;;;;;57.53;46.10;;;;;;;;;;5081690;28;20063;-74
2022/11/13 02:09:13;;;;;;;47.50;39.22;;;;;;;;;;5082496;28;20443;-75
2022/11/13 02:11:39;;;;;;;50.78;40.35;;;;;;;;;;5082263;28;20043;-72
2022/11/13 02:14:05;;;;;;;53.13;41.28;;;;;;;;;;5078296;28;20458;-72
2022/11/13 02:16:31;;;;;;;87.10;59.63;;;;;;;;;;5074326;28;20039;-71
2022/11/13 02:18:57;;;;;;;69.57;50.58;;;;;;;;;;5079943;28;20051;-72
2022/11/13 02:21:36;;;;;;;70.28;55.80;;;;;;;;;;5077219;28;20032;-72
2022/11/13 02:24:35;;;;;;;67.60;54.13;;;;;;;;;;5083785;28;20048;-72
2022/11/13 02:27:03;;;;;;;139.52;84.80;;;;;;;;;;5043346;28;20041;-73
2022/11/13 02:29:29;;;;;;;77.22;56.10;;;;;;;;;;5043826;28;20135;-71
2022/11/13 02:31:54;;;;;;;74.88;50.25;;;;;;;;;;5043285;28;20045;-76
2022/11/13 02:34:20;;;;;;;344.45;147.80;;;;;;;;;;5045087;28;20029;-72
2022/11/13 02:36:45;;;;;;;96.68;58.00;;;;;;;;;;5043567;28;20487;-74
2022/11/13 02:39:12;;;;;;;70.03;44.03;;;;;;;;;;5030959;28;20040;-74
2022/11/13 02:41:37;;;;;;;46.47;36.20;;;;;;;;;;5042186;28;20933;-74
2022/11/13 02:44:04;;;;;;;42.50;34.97;;;;;;;;;;5043743;28;20083;-73
2022/11/13 02:46:29;;;;;;;61.63;42.05;;;;;;;;;;5030611;28;20082;-73
2022/11/13 02:48:54;;;;;;;59.63;40.35;;;;;;;;;;5028284;28;20029;-75
2022/11/13 02:51:20;;;;;;;45.85;32.58;;;;;;;;;;5034577;28;20383;-73
2022/11/13 02:53:45;;;;;;;38.33;28.75;;;;;;;;;;5040071;28;20360;-71
2022/11/13 02:56:10;;;;;;;33.78;26.48;;;;;;;;;;5044983;28;20041;-76
2022/11/13 02:58:36;;;;;;;22.08;18.77;;;;;;;;;;5044639;28;20040;-72
2022/11/13 03:01:02;;;;;;;20.08;16.35;;;;;;;;;;5042596;28;20476;-71
2022/11/13 03:03:27;;;;;;;19.15;16.70;;;;;;;;;;5078993;28;20036;-74
2022/11/13 03:05:53;;;;;;;22.58;17.73;;;;;;;;;;5080995;28;20047;-71
2022/11/13 03:08:18;;;;;;;22.30;18.92;;;;;;;;;;5078491;28;20427;-76
2022/11/13 03:10:44;;;;;;;19.83;17.65;;;;;;;;;;5076690;28;20339;-72
2022/11/13 03:13:09;;;;;;;22.65;20.08;;;;;;;;;;5082695;28;20100;-75
2022/11/13 03:15:35;;;;;;;36.72;28.63;;;;;;;;;;5082722;28;20371;-72
2022/11/13 03:18:04;;;;;;;45.20;31.90;;;;;;;;;;5082186;28;20055;-73
2022/11/13 03:20:29;;;;;;;37.90;29.73;;;;;;;;;;5064628;28;20079;-75
2022/11/13 03:22:55;;;;;;;35.83;29.20;;;;;;;;;;5082644;28;20081;-73
2022/11/13 03:25:20;;;;;;;41.67;32.05;;;;;;;;;;5082029;28;20419;-73
2022/11/13 03:27:45;;;;;;;44.78;33.85;;;;;;;;;;5083333;28;20467;-71
2022/11/13 03:30:11;;;;;;;65.80;45.75;;;;;;;;;;5082954;28;20333;-72
2022/11/13 03:32:36;;;;;;;30.13;25.48;;;;;;;;;;5080741;28;20024;-73
2022/11/13 03:35:01;;;;;;;26.75;22.77;;;;;;;;;;5082039;28;20451;-74
2022/11/13 03:37:27;;;;;;;32.85;22.90;;;;;;;;;;5082328;28;20355;-72
2022/11/13 03:39:52;;;;;;;31.27;24.25;;;;;;;;;;5083609;28;20023;-76
2022/11/13 03:42:17;;;;;;;36.55;27.45;;;;;;;;;;5081867;28;20028;-73
2022/11/13 03:44:43;;;;;;;35.85;26.42;;;;;;;;;;5082098;28;20035;-72
2022/11/13 03:47:08;;;;;;;23.45;20.20;;;;;;;;;;5081544;28;20020;-77
2022/11/13 03:49:33;;;;;;;25.10;21.70;;;;;;;;;;5083132;28;20494;-74
2022/11/13 03:51:59;;;;;;;23.30;19.80;;;;;;;;;;5082338;28;20035;-73
2022/11/13 03:54:24;;;;;;;22.90;18.25;;;;;;;;;;5082440;28;20452;-72
2022/11/13 03:56:49;;;;;;;22.63;19.88;;;;;;;;;;5081654;28;20064;-72
2022/11/13 03:59:15;;;;;;;21.70;19.13;;;;;;;;;;5080739;28;20024;-72
2022/11/13 04:01:40;;;;;;;33.13;25.27;;;;;;;;;;5078998;28;20032;-72
2022/11/13 04:04:05;;;;;;;34.15;27.00;;;;;;;;;;5079711;28;20021;-73
2022/11/13 04:06:31;;;;;;;24.35;20.85;;;;;;;;;;5081625;28;20032;-72
2022/11/13 04:08:56;;;;;;;22.40;18.45;;;;;;;;;;5075785;28;20020;-72
2022/11/13 04:11:21;;;;;;;19.63;16.77;;;;;;;;;;5073406;28;20027;-74
2022/11/13 04:13:47;;;;;;;20.08;17.13;;;;;;;;;;5082084;28;20089;-71
2022/11/13 04:16:12;;;;;;;20.13;17.63;;;;;;;;;;5077856;28;20749;-75
2022/11/13 04:18:37;;;;;;;20.88;18.65;;;;;;;;;;5054951;28;20478;-74
2022/11/13 04:21:03;;;;;;;18.45;16.52;;;;;;;;;;5081924;28;20043;-72
2022/11/13 04:23:29;;;;;;;28.35;21.15;;;;;;;;;;5081614;28;20039;-73
2022/11/13 04:25:54;;;;;;;29.92;22.55;;;;;;;;;;5079999;28;20020;-73
2022/11/13 04:28:19;;;;;;;32.65;26.23;;;;;;;;;;5081032;28;20036;-72
2022/11/13 04:30:45;;;;;;;32.28;24.92;;;;;;;;;;5081490;28;20419;-72
2022/11/13 04:33:10;;;;;;;77.93;52.50;;;;;;;;;;5081097;28;20024;-76
2022/11/13 04:35:35;;;;;;;59.60;41.10;;;;;;;;;;5080025;28;20031;-73
2022/11/13 04:38:01;;;;;;;45.05;34.40;;;;;;;;;;5079697;28;20107;-71
2022/11/13 04:40:26;;;;;;;134.43;96.70;;;;;;;;;;5079826;28;20028;-75
2022/11/13 04:42:51;;;;;;;106.00;76.80;;;;;;;;;;5079416;28;20028;-72
2022/11/13 04:45:17;;;;;;;53.63;45.35;;;;;;;;;;5080344;28;20035;-72
2022/11/13 04:47:43;;;;;;;63.53;46.53;;;;;;;;;;5082245;28;20603;-71
2022/11/13 04:50:09;;;;;;;81.93;62.53;;;;;;;;;;5081608;28;20093;-71
2022/11/13 04:52:34;;;;;;;90.03;70.43;;;;;;;;;;5079981;28;20039;-70
2022/11/13 04:54:59;;;;;;;69.47;57.30;;;;;;;;;;5080546;28;20020;-73
2022/11/13 04:57:25;;;;;;;36.03;31.75;;;;;;;;;;5080187;28;20032;-72
2022/11/13 04:59:50;;;;;;;191.02;117.07;;;;;;;;;;5079013;28;20516;-76
2022/11/13 05:02:15;;;;;;;282.45;183.93;;;;;;;;;;5080854;28;20032;-72
2022/11/13 05:04:41;;;;;;;97.15;71.63;;;;;;;;;;5081701;28;20107;-72
2022/11/13 05:07:06;;;;;;;66.68;50.75;;;;;;;;;;5081931;28;20055;-71
2022/11/13 05:09:31;;;;;;;61.83;48.50;;;;;;;;;;5080189;28;20028;-71
2022/11/13 05:11:57;;;;;;;65.65;49.30;;;;;;;;;;5078657;28;20051;-70
2022/11/13 05:14:22;;;;;;;62.58;50.53;;;;;;;;;;5079824;28;20016;-71
2022/11/13 05:16:49;;;;;;;57.35;44.97;;;;;;;;;;5080855;28;20449;-71
2022/11/13 05:19:14;;;;;;;47.67;39.53;;;;;;;;;;5078830;28;20092;-72
2022/11/13 05:21:39;;;;;;;49.22;39.35;;;;;;;;;;5077188;28;21184;-74
2022/11/13 05:24:05;;;;;;;58.05;49.65;;;;;;;;;;5078305;28;20542;-71
2022/11/13 05:26:30;;;;;;;106.55;69.40;;;;;;;;;;5079446;28;21091;-72
2022/11/13 05:28:57;;;;;;;60.75;44.63;;;;;;;;;;5080377;28;20051;-71
2022/11/13 05:31:22;;;;;;;70.93;53.80;;;;;;;;;;5079425;28;20036;-74
2022/11/13 05:33:48;;;;;;;66.32;53.33;;;;;;;;;;5080318;28;20370;-71
2022/11/13 05:36:14;;;;;;;66.97;53.13;;;;;;;;;;5079899;28;20028;-72
2022/11/13 05:38:40;;;;;;;60.40;48.47;;;;;;;;;;5079985;28;20031;-72
2022/11/13 05:41:09;;;;;;;63.67;50.80;;;;;;;;;;5080943;28;20036;-71
2022/11/13 05:43:36;;;;;;;232.93;166.65;;;;;;;;;;5079528;28;20667;-71
2022/11/13 05:46:01;;;;;;;208.75;151.18;;;;;;;;;;5080206;28;20028;-71
2022/11/13 05:48:27;;;;;;;163.23;124.75;;;;;;;;;;5079881;28;20044;-71
2022/11/13 05:50:52;;;;;;;142.90;105.65;;;;;;;;;;5085114;28;20078;-72
2022/11/13 05:53:17;;;;;;;114.97;89.50;;;;;;;;;;5083666;28;20046;-71
2022/11/13 05:55:43;;;;;;;141.15;108.60;;;;;;;;;;5084958;28;20184;-71
2022/11/13 05:58:08;;;;;;;120.43;90.05;;;;;;;;;;5083188;28;20039;-73
2022/11/13 06:00:34;;;;;;;109.82;92.38;;;;;;;;;;5077474;28;20020;-72
2022/11/13 06:02:59;;;;;;;130.60;100.20;;;;;;;;;;5078623;28;20043;-76
2022/11/13 06:05:24;;;;;;;135.45;98.97;;;;;;;;;;5083451;28;20031;-73
2022/11/13 06:07:50;;;;;;;94.63;76.75;;;;;;;;;;5083087;28;20020;-71
2022/11/13 06:10:15;;;;;;;49.45;43.42;;;;;;;;;;5081152;28;20042;-75
2022/11/13 06:12:40;;;;;;;40.33;34.88;;;;;;;;;;5083494;28;20036;-72
2022/11/13 06:15:06;;;;;;;41.08;36.45;;;;;;;;;;5078450;28;20355;-72
2022/11/13 06:17:31;;;;;;;45.90;39.20;;;;;;;;;;5083104;28;20058;-72
2022/11/13 06:19:57;;;;;;;72.05;62.65;;;;;;;;;;5079304;28;20027;-71
2022/11/13 06:22:22;;;;;;;85.22;69.20;;;;;;;;;;5070276;28;20032;-77
2022/11/13 06:24:47;;;;;;;43.75;36.65;;;;;;;;;;5070178;28;20031;-74
2022/11/13 06:27:13;;;;;;;27.75;24.67;;;;;;;;;;5070803;28;20039;-73
2022/11/13 06:29:38;;;;;;;39.80;31.95;;;;;;;;;;5077485;28;20024;-78
2022/11/13 06:32:03;;;;;;;78.10;63.22;;;;;;;;;;5075351;28;20111;-74
2022/11/13 06:34:29;;;;;;;72.80;59.63;;;;;;;;;;5071762;28;20024;-74
2022/11/13 06:36:54;;;;;;;67.75;58.28;;;;;;;;;;5078120;28;21167;-71
2022/11/13 06:39:19;;;;;;;89.65;80.25;;;;;;;;;;5067161;28;20460;-71
2022/11/13 06:41:45;;;;;;;107.85;96.75;;;;;;;;;;5066798;28;20039;-72
2022/11/13 06:44:10;;;;;;;83.32;72.80;;;;;;;;;;5067135;28;20848;-72
2022/11/13 06:46:36;;;;;;;80.28;64.38;;;;;;;;;;5069651;28;20024;-74
2022/11/13 06:49:01;;;;;;;72.97;51.75;;;;;;;;;;5068966;28;20081;-76
2022/11/13 06:51:27;;;;;;;52.10;43.20;;;;;;;;;;5072729;28;20115;-72
2022/11/13 06:53:53;;;;;;;45.72;40.83;;;;;;;;;;5078266;28;20028;-72
2022/11/13 06:56:18;;;;;;;47.30;40.92;;;;;;;;;;5069515;28;20032;-74
2022/11/13 06:58:44;;;;;;;51.72;43.42;;;;;;;;;;5068070;28;20062;-73
2022/11/13 07:01:19;;;;;;;69.70;58.38;;;;;;;;;;5076899;28;20051;-72
2022/11/13 07:03:44;;;;;;;86.88;77.32;;;;;;;;;;5069455;28;20096;-72
2022/11/13 07:06:14;;;;;;;111.15;93.15;;;;;;;;;;5081884;28;20040;-73
2022/11/13 07:08:40;;;;;;;101.75;85.82;;;;;;;;;;5083923;28;20094;-75
2022/11/13 07:11:06;;;;;;;106.28;93.30;;;;;;;;;;5076332;28;20028;-72
2022/11/13 07:13:32;;;;;;;90.30;80.40;;;;;;;;;;5076312;28;20068;-71
2022/11/13 07:16:04;;;;;;;77.70;69.22;;;;;;;;;;5082195;28;20062;-72
2022/11/13 07:18:30;;;;;;;63.95;56.35;;;;;;;;;;5082817;28;20048;-76
2022/11/13 07:20:55;;;;;;;64.88;58.13;;;;;;;;;;5076006;28;20030;-74
2022/11/13 07:23:21;;;;;;;66.50;59.35;;;;;;;;;;5080320;28;20028;-73
2022/11/13 07:25:46;;;;;;;116.28;100.00;;;;;;;;;;5083314;28;20351;-72
2022/11/13 07:28:11;;;;;;;89.35;72.28;;;;;;;;;;5083429;28;20055;-73
2022/11/13 07:30:37;;;;;;;64.10;52.13;;;;;;;;;;5082473;28;20028;-72
2022/11/13 07:33:03;;;;;;;67.60;53.22;;;;;;;;;;5082970;28;20086;-72
2022/11/13 07:35:28;;;;;;;151.43;133.48;;;;;;;;;;5082637;28;20443;-74
2022/11/13 07:37:54;;;;;;;134.23;115.35;;;;;;;;;;5082992;28;20036;-73
2022/11/13 07:40:20;;;;;;;115.18;95.78;;;;;;;;;;5083157;28;20020;-73
2022/11/13 07:42:45;;;;;;;106.68;90.32;;;;;;;;;;5081573;28;20392;-77
2022/11/13 07:45:10;;;;;;;126.53;102.88;;;;;;;;;;5080396;28;20032;-76
2022/11/13 07:47:36;;;;;;;129.48;107.72;;;;;;;;;;5082101;28;20028;-71
2022/11/13 07:50:01;;;;;;;134.13;108.35;;;;;;;;;;5078650;28;20135;-71
2022/11/13 07:52:27;;;;;;;122.43;99.78;;;;;;;;;;5071691;28;20024;-70
2022/11/13 07:54:53;;;;;;;117.25;97.90;;;;;;;;;;5081540;28;20861;-73
2022/11/13 07:57:19;;;;;;;137.57;105.22;;;;;;;;;;5081015;28;20073;-72
2022/11/13 07:59:45;;;;;;;130.70;98.05;;;;;;;;;;5082415;28;20020;-70
2022/11/13 08:02:13;;;;;;;169.50;117.45;;;;;;;;;;5074762;28;20401;-71
2022/11/13 08:04:38;;;;;;;142.23;105.72;;;;;;;;;;5076305;28;20027;-71
2022/11/13 08:07:03;;;;;;;165.25;126.18;;;;;;;;;;5080537;28;20410;-72
2022/11/13 08:09:29;;;;;;;166.70;122.00;;;;;;;;;;5081125;28;20093;-75
2022/11/13 08:11:54;;;;;;;199.70;143.75;;;;;;;;;;5063227;28;20040;-73
2022/11/13 08:14:19;;;;;;;168.75;123.90;;;;;;;;;;5074157;28;20024;-72
2022/11/13 08:16:45;;;;;;;146.25;110.82;;;;;;;;;;5074597;28;20084;-72
2022/11/13 08:19:10;;;;;;;141.82;104.13;;;;;;;;;;5072400;28;20052;-71
2022/11/13 08:21:36;;;;;;;110.68;82.63;;;;;;;;;;5073367;28;20024;-72
2022/11/13 08:24:01;;;;;;;96.85;71.18;;;;;;;;;;5082105;28;20036;-72
2022/11/13 08:26:26;;;;;;;112.57;90.80;;;;;;;;;;5076716;28;20111;-71
2022/11/13 08:28:52;;;;;;;75.93;51.50;;;;;;;;;;5073158;28;20036;-72
2022/11/13 08:31:17;;;;;;;87.97;66.03;;;;;;;;;;5081983;28;20020;-76
2022/11/13 08:33:42;;;;;;;99.55;76.22;;;;;;;;;;5081216;28;20042;-72
2022/11/13 08:36:08;;;;;;;93.20;72.25;;;;;;;;;;5061093;28;20044;-78
2022/11/13 08:38:34;;;;;;;97.65;71.18;;;;;;;;;;5072133;28;20131;-72
2022/11/13 08:41:00;;;;;;;93.85;70.00;;;;;;;;;;5080980;28;20102;-72
2022/11/13 08:43:26;;;;;;;81.07;64.65;;;;;;;;;;5074958;28;20516;-72
2022/11/13 08:45:51;;;;;;;67.72;53.13;;;;;;;;;;5078277;28;20020;-73
2022/11/13 08:48:17;;;;;;;86.80;64.10;;;;;;;;;;5081554;28;20046;-73
2022/11/13 08:50:42;;;;;;;74.25;55.95;;;;;;;;;;5082294;28;20019;-75
2022/11/13 08:53:08;;;;;;;63.13;47.40;;;;;;;;;;5081179;28;20032;-75
2022/11/13 08:55:33;;;;;;;56.63;42.20;;;;;;;;;;5081049;28;20093;-74
2022/11/13 08:57:59;;;;;;;51.80;42.45;;;;;;;;;;5080885;28;20032;-73
2022/11/13 09:00:25;;;;;;;55.72;43.63;;;;;;;;;;5082320;28;20020;-73
2022/11/13 09:02:55;;;;;;;108.13;59.90;;;;;;;;;;5081555;28;20032;-72
2022/11/13 09:05:20;;;;;;;231.73;109.07;;;;;;;;;;5078937;28;20028;-73
2022/11/13 09:07:46;;;;;;;168.07;91.53;;;;;;;;;;5070698;28;20467;-75
2022/11/13 09:10:11;;;;;;;183.98;103.88;;;;;;;;;;5079720;28;20028;-76
2022/11/13 09:12:37;;;;;;;106.35;76.60;;;;;;;;;;5063953;28;20450;-76
2022/11/13 09:15:02;;;;;;;71.22;56.90;;;;;;;;;;5068677;28;20035;-75
2022/11/13 09:17:28;;;;;;;110.07;88.32;;;;;;;;;;5079953;28;20052;-75
2022/11/13 09:19:53;;;;;;;69.15;55.83;;;;;;;;;;5082040;28;20028;-76
2022/11/13 09:22:18;;;;;;;68.75;56.30;;;;;;;;;;5080876;28;20024;-76
2022/11/13 09:24:43;;;;;;;69.25;55.22;;;;;;;;;;5083795;28;20085;-76
2022/11/13 09:27:09;;;;;;;67.00;56.58;;;;;;;;;;5077403;28;20032;-76
2022/11/13 09:29:34;;;;;;;59.35;51.97;;;;;;;;;;5074544;28;20031;-74
2022/11/13 09:32:00;;;;;;;56.00;47.33;;;;;;;;;;5071530;28;20031;-75
2022/11/13 09:34:26;;;;;;;44.58;38.22;;;;;;;;;;5070703;28;20085;-75
2022/11/13 09:36:52;;;;;;;43.85;38.33;;;;;;;;;;5072106;28;20036;-76
2022/11/13 09:39:17;;;;;;;44.85;39.85;;;;;;;;;;5070591;28;20113;-75
2022/11/13 09:41:44;;;;;;;44.03;39.25;;;;;;;;;;5068184;28;20020;-75
2022/11/13 09:44:16;;;;;;;48.08;42.67;;;;;;;;;;5071244;28;20028;-74
2022/11/13 09:46:44;;;;;;;40.28;35.83;;;;;;;;;;5069511;28;20016;-75
2022/11/13 09:49:12;;;;;;;42.75;38.15;;;;;;;;;;5069513;28;20020;-75
2022/11/13 09:51:38;;;;;;;40.05;35.83;;;;;;;;;;5067486;28;20050;-76
2022/11/13 09:54:11;;;;;;;68.63;51.58;;;;;;;;;;5065403;28;20435;-75
2022/11/13 09:56:38;;;;;;;56.17;43.90;;;;;;;;;;5067687;28;20032;-75
2022/11/13 09:59:10;;;;;;;60.28;47.38;;;;;;;;;;5069572;28;20489;-75
2022/11/13 10:01:41;;;;;;;64.22;54.60;;;;;;;;;;5069271;28;20023;-78
2022/11/13 10:04:10;;;;;;;46.33;40.92;;;;;;;;;;5068276;28;20024;-78
2022/11/13 10:06:35;;;;;;;61.10;52.05;;;;;;;;;;5069160;28;20084;-75
2022/11/13 10:09:07;;;;;;;47.42;42.35;;;;;;;;;;5069212;28;20455;-74
2022/11/13 10:11:33;;;;;;;75.55;58.97;;;;;;;;;;5068932;28;20020;-76
2022/11/13 10:13:59;;;;;;;82.88;61.17;;;;;;;;;;5070491;28;20358;-76
2022/11/13 10:16:31;;;;;;;52.78;47.17;;;;;;;;;;5069627;28;20077;-74
2022/11/13 10:19:04;;;;;;;51.88;46.25;;;;;;;;;;5054910;28;20472;-73
2022/11/13 10:21:41;;;;;;;44.60;39.85;;;;;;;;;;5046883;28;20012;-73
2022/11/13 10:24:12;;;;;;;53.17;40.95;;;;;;;;;;5045639;28;20025;-74
2022/11/13 10:26:38;;;;;;;37.88;33.88;;;;;;;;;;5046312;28;20020;-74
2022/11/13 10:29:11;;;;;;;41.72;37.28;;;;;;;;;;5047222;28;20347;-72
2022/11/13 10:32:03;;;;;;;43.00;38.42;;;;;;;;;;5049090;28;20088;-75
2022/11/13 10:34:28;;;;;;;44.75;39.88;;;;;;;;;;5007857;28;24564;-75
2022/11/13 10:37:02;;;;;;;51.50;45.90;;;;;;;;;;5002807;28;20041;-72
2022/11/13 10:39:27;;;;;;;49.22;43.13;;;;;;;;;;5001285;28;20041;-73
2022/11/13 10:41:53;;;;;;;35.90;32.05;;;;;;;;;;5002434;28;20044;-74
2022/11/13 10:44:21;;;;;;;37.22;33.30;;;;;;;;;;5004631;28;20073;-73
2022/11/13 10:46:47;;;;;;;33.42;29.83;;;;;;;;;;5006165;28;20460;-73
2022/11/13 10:49:16;;;;;;;32.55;29.10;;;;;;;;;;5019154;28;20025;-74
2022/11/13 10:51:42;;;;;;;35.17;31.38;;;;;;;;;;5005653;28;20116;-74
2022/11/13 10:54:30;;;;;;;33.30;29.80;;;;;;;;;;5004855;28;20052;-73
2022/11/13 10:56:58;;;;;;;25.42;22.70;;;;;;;;;;5001401;28;20038;-73
2022/11/13 10:59:25;;;;;;;32.65;29.27;;;;;;;;;;5012235;28;20047;-71
2022/11/13 11:01:50;;;;;;;34.17;30.67;;;;;;;;;;5011092;28;20041;-71
2022/11/13 11:04:20;;;;;;;35.70;25.60;;;;;;;;;;5011201;28;20037;-74
2022/11/13 11:06:45;;;;;;;19.85;16.15;;;;;;;;;;5020060;28;20021;-73
2022/11/13 11:09:21;;;;;;;19.63;13.85;;;;;;;;;;5018203;28;20032;-73
2022/11/13 11:12:19;;;;;;;22.02;19.15;;;;;;;;;;5049562;28;20117;-73
2022/11/13 11:14:59;;;;;;;15.10;13.48;;;;;;;;;;5020516;28;20065;-72
2022/11/13 11:17:33;;;;;;;15.40;13.88;;;;;;;;;;5019184;28;20116;-73
2022/11/13 11:20:06;;;;;;;18.52;16.35;;;;;;;;;;5019844;28;20365;-72
2022/11/13 11:22:33;;;;;;;18.13;16.23;;;;;;;;;;5018177;28;20166;-72
2022/11/13 11:25:04;;;;;;;13.27;11.10;;;;;;;;;;5017289;28;20628;-72
2022/11/13 11:27:34;;;;;;;12.15;10.85;;;;;;;;;;5007280;28;20067;-75
2022/11/13 11:30:03;;;;;;;24.38;18.05;;;;;;;;;;5006530;28;20025;-73
2022/11/13 11:32:28;;;;;;;13.88;12.35;;;;;;;;;;5010865;28;20045;-72
2022/11/13 11:35:03;;;;;;;12.55;11.35;;;;;;;;;;5011666;28;20048;-72
2022/11/13 11:37:34;;;;;;;11.98;10.82;;;;;;;;;;5018305;28;20065;-73
2022/11/13 11:40:06;;;;;;;11.98;10.68;;;;;;;;;;5019492;28;20427;-72
2022/11/13 11:42:32;;;;;;;12.80;11.52;;;;;;;;;;5008797;28;20428;-72
2022/11/13 11:45:19;;;;;;;22.38;19.83;;;;;;;;;;5007992;28;20120;-73
2022/11/13 11:47:45;;;;;;;18.15;16.23;;;;;;;;;;5012499;28;20044;-72
2022/11/13 11:50:13;;;;;;;20.48;17.55;;;;;;;;;;5015191;28;20026;-72
2022/11/13 11:52:53;;;;;;;21.23;19.02;;;;;;;;;;5050568;28;20471;-72
2022/11/13 11:55:32;;;;;;;50.10;42.13;;;;;;;;;;5053040;28;20024;-72
2022/11/13 11:58:01;;;;;;;20.67;18.67;;;;;;;;;;5055562;28;20056;-72
2022/11/13 12:00:29;;;;;;;16.15;14.57;;;;;;;;;;5054359;28;20398;-74
2022/11/13 12:02:54;;;;;;;13.07;11.85;;;;;;;;;;5059820;28;20781;-74
2022/11/13 12:05:19;;;;;;;13.25;11.95;;;;;;;;;;5056944;28;20506;-71
2022/11/13 12:07:46;;;;;;;12.10;11.00;;;;;;;;;;5059270;28;20099;-71
2022/11/13 12:10:24;;;;;;;11.45;9.90;;;;;;;;;;5061247;28;20023;-71
2022/11/13 12:12:57;;;;;;;10.38;9.27;;;;;;;;;;5059811;28;20024;-73
2022/11/13 12:15:31;;;;;;;10.57;9.57;;;;;;;;;;5060555;28;20044;-73
2022/11/13 12:17:57;;;;;;;10.82;9.82;;;;;;;;;;5068123;28;20064;-72
2022/11/13 12:20:41;;;;;;;10.30;9.23;;;;;;;;;;5080653;28;20024;-73
2022/11/13 12:23:25;;;;;;;11.85;10.65;;;;;;;;;;5080168;28;20032;-72
2022/11/13 12:26:15;;;;;;;11.85;10.75;;;;;;;;;;5079849;28;20444;-72
2022/11/13 12:28:47;;;;;;;11.13;10.02;;;;;;;;;;5074360;28;20048;-71
2022/11/13 12:31:12;;;;;;;12.02;10.93;;;;;;;;;;5082784;28;20016;-72
2022/11/13 12:33:46;;;;;;;11.52;10.50;;;;;;;;;;5081801;28;20076;-73
2022/11/13 12:36:12;;;;;;;11.70;10.60;;;;;;;;;;5080570;28;20032;-72
2022/11/13 12:38:46;;;;;;;10.68;9.80;;;;;;;;;;5082251;28;20474;-72
2022/11/13 12:41:20;;;;;;;9.80;8.82;;;;;;;;;;5081574;28;20112;-72
2022/11/13 12:44:04;;;;;;;9.95;9.05;;;;;;;;;;5081518;28;20443;-72
2022/11/13 12:46:40;;;;;;;10.52;9.52;;;;;;;;;;5079753;28;20020;-70
2022/11/13 12:49:24;;;;;;;13.02;11.75;;;;;;;;;;5080333;28;20031;-71
2022/11/13 12:51:56;;;;;;;14.02;11.93;;;;;;;;;;5066993;28;20024;-71
2022/11/13 12:54:28;;;;;;;12.77;11.48;;;;;;;;;;5079946;28;20037;-73
2022/11/13 12:57:12;;;;;;;12.10;10.90;;;;;;;;;;5079905;28;20067;-72
2022/11/13 12:59:42;;;;;;;13.63;12.25;;;;;;;;;;5081533;28;20028;-75
2022/11/13 13:02:08;;;;;;;13.43;12.07;;;;;;;;;;5079395;28;20032;-71
2022/11/13 13:04:45;;;;;;;10.88;9.80;;;;;;;;;;5073650;28;20031;-70
2022/11/13 13:07:21;;;;;;;14.07;12.77;;;;;;;;;;5079522;28;20039;-71
2022/11/13 13:09:46;;;;;;;15.85;14.25;;;;;;;;;;5081552;28;20024;-70
2022/11/13 13:12:21;;;;;;;15.55;13.98;;;;;;;;;;5051049;28;20352;-70
2022/11/13 13:14:49;;;;;;;15.52;13.05;;;;;;;;;;5063937;28;20107;-71
2022/11/13 13:17:14;;;;;;;13.10;11.38;;;;;;;;;;5065442;28;20027;-71
2022/11/13 13:19:40;;;;;;;11.75;10.55;;;;;;;;;;5066771;28;20031;-71
2022/11/13 13:22:10;;;;;;;11.82;10.68;;;;;;;;;;5075571;28;20039;-71
2022/11/13 13:24:36;;;;;;;12.15;10.90;;;;;;;;;;5046322;28;20097;-71
2022/11/13 13:27:19;;;;;;;11.32;10.23;;;;;;;;;;5075103;28;20024;-72
2022/11/13 13:29:44;;;;;;;12.88;11.60;;;;;;;;;;5067936;28;20025;-73
2022/11/13 13:32:30;;;;;;;10.43;9.35;;;;;;;;;;5077072;28;20036;-72
2022/11/13 13:35:11;;;;;;;13.70;12.30;;;;;;;;;;5078681;28;20032;-71
2022/11/13 13:37:36;;;;;;;20.42;18.42;;;;;;;;;;5078229;28;20382;-72
2022/11/13 13:40:01;;;;;;;17.00;14.20;;;;;;;;;;5062246;28;20634;-72
2022/11/13 13:42:30;;;;;;;16.15;14.45;;;;;;;;;;5073941;28;20060;-71
2022/11/13 13:45:04;;;;;;;16.02;14.43;;;;;;;;;;5080878;28;20028;-73
2022/11/13 13:47:37;;;;;;;13.45;12.05;;;;;;;;;;5076208;28;20051;-70
2022/11/13 13:50:07;;;;;;;15.10;12.75;;;;;;;;;;5065880;28;20031;-71
2022/11/13 13:52:33;;;;;;;22.20;18.38;;;;;;;;;;5076809;28;20036;-71
2022/11/13 13:55:03;;;;;;;18.67;16.63;;;;;;;;;;5071057;28;20028;-71
2022/11/13 13:57:29;;;;;;;17.80;15.88;;;;;;;;;;5065997;28;20367;-70
2022/11/13 13:59:55;;;;;;;17.63;15.57;;;;;;;;;;5059819;28;20032;-74
2022/11/13 14:02:24;;;;;;;17.42;15.63;;;;;;;;;;5056266;28;20036;-70
2022/11/13 14:04:49;;;;;;;;;;;;;;;;;;5066701;28;20031;-70
2022/11/13 14:07:24;;;;;;;16.37;14.37;;;;;;;;;;5061730;28;19909;-70
2022/11/13 14:10:02;;;;;;;17.23;15.52;;;;;;;;;;5077454;28;20364;-71
2022/11/13 14:12:27;;;;;;;17.17;15.43;;;;;;;;;;5082336;28;20024;-71
2022/11/13 14:14:53;;;;;;;16.17;14.57;;;;;;;;;;5082614;28;20043;-70
2022/11/13 14:17:24;;;;;;;14.40;12.90;;;;;;;;;;5064976;28;20034;-71